Time;durP1;ratioP1;P1;durP2;ratioP2;P2;SDS_P1;SDS_P2;PMS_P1;PMS_P2;Temp;Humidity;BMP_temperature;BMP_pressure;BME280_temperature;BME280_humidity;BME280_pressure;Samples;Min_cycle;Max_cycle;Signal;HPM_P1;HPM_P2
2023/06/06 00:01:18;;;;;;;4.93;4.22;;;;;;;11.11;100.00;102020.59;5052317;28;20478;-46
2023/06/06 00:03:51;;;;;;;4.40;4.00;;;;;;;11.25;100.00;102017.59;5052308;28;20194;-46
2023/06/06 00:06:20;;;;;;;5.15;3.42;;;;;;;11.23;100.00;102006.03;5061814;28;20222;-47
2023/06/06 00:08:48;;;;;;;4.55;4.20;;;;;;;11.18;100.00;102006.13;5052072;28;20185;-45
2023/06/06 00:11:14;;;;;;;4.15;3.60;;;;;;;11.23;100.00;102003.34;5058477;28;20199;-47
2023/06/06 00:13:40;;;;;;;5.53;4.10;;;;;;;11.06;100.00;102001.94;5051831;28;20261;-48
2023/06/06 00:16:06;;;;;;;4.18;3.80;;;;;;;11.04;100.00;102009.13;5060349;28;20245;-47
2023/06/06 00:18:31;;;;;;;6.22;3.97;;;;;;;10.97;100.00;102006.59;5057949;28;20230;-47
2023/06/06 00:20:57;;;;;;;7.30;4.43;;;;;;;11.03;100.00;102001.09;5048503;28;20198;-47
2023/06/06 00:23:22;;;;;;;7.57;4.20;;;;;;;11.02;100.00;102000.22;5049815;28;20179;-45
2023/06/06 00:25:49;;;;;;;6.18;3.47;;;;;;;11.02;100.00;102002.91;5050329;28;20207;-46
2023/06/06 00:28:15;;;;;;;5.00;3.80;;;;;;;11.00;100.00;102002.06;5056949;28;20179;-48
2023/06/06 00:30:41;;;;;;;4.32;3.92;;;;;;;11.04;100.00;102000.16;5052573;28;20680;-47
2023/06/06 00:33:07;;;;;;;5.40;3.95;;;;;;;11.07;100.00;101997.44;5058527;28;20270;-47
2023/06/06 00:35:33;;;;;;;4.05;3.65;;;;;;;11.09;100.00;101998.28;5053831;28;20664;-47
2023/06/06 00:37:58;;;;;;;5.20;4.05;;;;;;;10.98;100.00;102003.00;5062328;28;20219;-44
2023/06/06 00:40:24;;;;;;;4.18;3.78;;;;;;;10.90;100.00;101992.44;5053031;28;20280;-48
2023/06/06 00:42:51;;;;;;;5.78;4.13;;;;;;;10.99;100.00;101992.22;5054905;28;20190;-49
2023/06/06 00:45:16;;;;;;;6.82;4.32;;;;;;;10.99;100.00;101997.59;5064476;28;20194;-47
2023/06/06 00:47:42;;;;;;;5.03;3.88;;;;;;;10.93;100.00;101989.66;5058199;28;20167;-47
2023/06/06 00:50:12;;;;;;;4.15;3.50;;;;;;;10.93;100.00;101990.56;5048203;28;20179;-47
2023/06/06 00:52:40;;;;;;;5.10;3.88;;;;;;;10.85;100.00;101988.97;5051154;28;20180;-46
2023/06/06 00:55:07;;;;;;;4.05;3.40;;;;;;;10.90;100.00;101987.06;5051868;28;20641;-45
2023/06/06 00:57:35;;;;;;;7.57;3.88;;;;;;;10.79;100.00;101992.66;5052243;28;20218;-46
2023/06/06 01:00:05;;;;;;;5.55;4.20;;;;;;;10.77;100.00;101998.97;5034727;28;20261;-46
2023/06/06 01:02:37;;;;;;;5.15;4.32;;;;;;;10.67;100.00;101990.19;5056435;28;20181;-46
2023/06/06 01:05:09;;;;;;;5.60;4.97;;;;;;;10.51;100.00;101993.19;5058803;28;20184;-47
2023/06/06 01:07:37;;;;;;;5.03;4.10;;;;;;;10.58;100.00;101998.44;5041993;28;20273;-47
2023/06/06 01:10:06;;;;;;;6.75;4.68;;;;;;;10.43;100.00;102002.28;5046922;28;20608;-46
2023/06/06 01:12:44;;;;;;;5.28;4.45;;;;;;;10.41;100.00;102002.31;5062907;28;20542;-47
2023/06/06 01:15:18;;;;;;;4.55;4.15;;;;;;;10.45;100.00;102008.50;5055317;28;20182;-47
2023/06/06 01:17:46;;;;;;;5.68;4.30;;;;;;;10.48;100.00;102005.78;5055354;28;20187;-45
2023/06/06 01:20:13;;;;;;;4.80;4.30;;;;;;;10.46;100.00;102007.59;5058854;28;20290;-47
2023/06/06 01:22:39;;;;;;;5.13;4.43;;;;;;;10.26;100.00;102008.81;5055014;28;20253;-45
2023/06/06 01:25:06;;;;;;;6.05;4.47;;;;;;;10.34;100.00;102014.03;5059489;28;20175;-47
2023/06/06 01:27:33;;;;;;;6.43;4.53;;;;;;;10.22;100.00;102011.56;5052108;28;20195;-46
2023/06/06 01:30:01;;;;;;;4.43;3.92;;;;;;;10.32;100.00;102018.56;5055038;28;20213;-49
2023/06/06 01:32:36;;;;;;;5.78;4.25;;;;;;;10.40;100.00;102010.38;5053977;28;20174;-47
2023/06/06 01:35:16;;;;;;;5.60;4.10;;;;;;;10.41;100.00;102015.72;5053858;28;20570;-47
2023/06/06 01:37:59;;;;;;;5.07;3.40;;;;;;;10.39;100.00;102019.34;5050588;28;20201;-49
2023/06/06 01:40:29;;;;;;;5.60;4.03;;;;;;;10.33;100.00;102012.28;5051923;28;20189;-46
2023/06/06 01:42:55;;;;;;;5.88;3.80;;;;;;;10.37;100.00;102011.31;5051758;28;20167;-48
2023/06/06 01:45:26;;;;;;;6.70;4.78;;;;;;;10.21;100.00;102015.16;5054746;28;20721;-47
2023/06/06 01:47:53;;;;;;;5.60;4.40;;;;;;;10.02;100.00;102009.25;5064406;28;20175;-49
2023/06/06 01:50:18;;;;;;;5.88;3.90;;;;;;;10.08;100.00;102018.06;5040942;28;20581;-47
2023/06/06 01:52:44;;;;;;;4.93;4.05;;;;;;;10.15;100.00;102021.50;5063426;28;20187;-48
2023/06/06 01:55:10;;;;;;;8.40;4.50;;;;;;;10.07;100.00;102023.44;5057262;28;20202;-47
2023/06/06 01:57:36;;;;;;;7.28;4.22;;;;;;;10.01;100.00;102012.81;5053834;28;20195;-48
2023/06/06 02:00:09;;;;;;;6.03;4.25;;;;;;;10.01;100.00;102013.69;5055263;28;20678;-48
2023/06/06 02:02:40;;;;;;;5.03;3.65;;;;;;;9.90;100.00;102015.66;5058596;28;20191;-47
2023/06/06 02:05:06;;;;;;;7.20;4.55;;;;;;;9.78;100.00;102023.91;5054816;28;20641;-48
2023/06/06 02:07:34;;;;;;;6.18;4.22;;;;;;;9.86;100.00;102025.56;5052453;28;20199;-48
2023/06/06 02:10:03;;;;;;;4.43;3.95;;;;;;;9.75;100.00;102027.53;5051366;28;20207;-48
2023/06/06 02:12:30;;;;;;;4.22;3.83;;;;;;;9.87;100.00;102032.66;5059358;28;20657;-50
2023/06/06 02:14:56;;;;;;;4.72;4.13;;;;;;;9.87;100.00;102043.38;5054817;28;20209;-46
2023/06/06 02:17:22;;;;;;;4.90;4.40;;;;;;;9.77;100.00;102039.06;5050085;28;20291;-46
2023/06/06 02:19:51;;;;;;;7.22;4.55;;;;;;;9.81;100.00;102030.09;5071222;28;20199;-48
2023/06/06 02:22:16;;;;;;;6.18;4.28;;;;;;;9.88;100.00;102034.47;5053512;28;20178;-47
2023/06/06 02:24:43;;;;;;;4.72;4.20;;;;;;;9.89;100.00;102029.97;5055847;28;20191;-48
2023/06/06 02:27:10;;;;;;;4.70;4.22;;;;;;;9.96;100.00;102026.28;5053255;28;20305;-46
2023/06/06 02:29:36;;;;;;;6.22;4.88;;;;;;;9.85;100.00;102028.25;5052631;28;20693;-46
2023/06/06 02:32:03;;;;;;;5.00;4.30;;;;;;;9.92;100.00;102034.41;5056515;28;20202;-48
2023/06/06 02:34:29;;;;;;;7.72;4.53;;;;;;;9.80;100.00;102020.31;5053094;28;20199;-46
2023/06/06 02:36:56;;;;;;;6.93;4.60;;;;;;;9.81;100.00;102016.69;5051629;28;20634;-49
2023/06/06 02:39:25;;;;;;;7.18;4.35;;;;;;;9.81;100.00;102021.19;5053374;28;20665;-49
2023/06/06 02:41:51;;;;;;;4.80;4.07;;;;;;;9.85;100.00;102031.81;5050700;28;20429;-46
2023/06/06 02:44:19;;;;;;;7.65;4.63;;;;;;;9.69;100.00;102032.97;5050303;28;20184;-49
2023/06/06 02:46:46;;;;;;;5.47;3.70;;;;;;;9.79;100.00;102023.88;5053008;28;20544;-48
2023/06/06 02:49:12;;;;;;;5.68;4.22;;;;;;;9.82;100.00;102029.19;5051016;28;20179;-45
2023/06/06 02:51:38;;;;;;;4.55;4.15;;;;;;;9.58;100.00;102026.91;5058396;28;20700;-48
2023/06/06 02:54:04;;;;;;;4.93;4.38;;;;;;;9.65;100.00;102034.81;5050707;28;20190;-46
2023/06/06 02:56:31;;;;;;;4.25;3.85;;;;;;;9.69;100.00;102024.94;5048740;28;20266;-46
2023/06/06 02:58:57;;;;;;;7.80;4.53;;;;;;;9.63;100.00;102022.34;5053766;28;20242;-47
2023/06/06 03:01:23;;;;;;;5.10;4.07;;;;;;;9.73;100.00;102026.66;5050680;28;20276;-47
2023/06/06 03:03:48;;;;;;;6.07;4.80;;;;;;;9.57;100.00;102031.34;5054485;28;20264;-46
2023/06/06 03:06:18;;;;;;;5.10;4.60;;;;;;;9.61;100.00;102026.84;5052525;28;20203;-47
2023/06/06 03:08:44;;;;;;;5.18;4.70;;;;;;;9.61;100.00;102034.88;5055121;28;20171;-47
2023/06/06 03:11:10;;;;;;;5.00;4.50;;;;;;;9.64;100.00;102026.78;5061620;28;20182;-48
2023/06/06 03:13:37;;;;;;;4.75;4.18;;;;;;;9.66;100.00;102030.31;5050707;28;20339;-48
2023/06/06 03:16:02;;;;;;;6.40;4.50;;;;;;;9.57;100.00;102030.47;5055888;28;20211;-46
2023/06/06 03:18:28;;;;;;;4.35;3.88;;;;;;;9.62;100.00;102032.19;5056201;28;20209;-47
2023/06/06 03:21:01;;;;;;;4.68;4.28;;;;;;;9.58;100.00;102040.28;5034652;28;20270;-46
2023/06/06 03:23:31;;;;;;;4.88;4.30;;;;;;;9.58;100.00;102048.31;5055502;28;20203;-47
2023/06/06 03:25:58;;;;;;;5.57;4.07;;;;;;;9.43;100.00;102036.91;5052453;28;20204;-46
2023/06/06 03:28:23;;;;;;;4.68;4.03;;;;;;;9.32;100.00;102044.19;5058402;28;20227;-48
2023/06/06 03:30:51;;;;;;;5.78;4.45;;;;;;;9.36;100.00;102042.34;5049269;28;20175;-47
2023/06/06 03:33:17;;;;;;;5.05;4.30;;;;;;;9.32;100.00;102037.97;5052678;28;20210;-47
2023/06/06 03:35:44;;;;;;;5.57;4.68;;;;;;;9.16;100.00;102031.91;5048556;28;20214;-48
2023/06/06 03:38:12;;;;;;;7.75;4.95;;;;;;;9.23;100.00;102038.97;5051477;28;20284;-46
2023/06/06 03:40:38;;;;;;;5.90;4.32;;;;;;;9.37;100.00;102028.97;5056069;28;20695;-48
2023/06/06 03:43:04;;;;;;;5.00;4.50;;;;;;;9.40;100.00;102036.06;5051550;28;20187;-47
2023/06/06 03:45:31;;;;;;;5.50;4.68;;;;;;;9.51;100.00;102036.81;5053730;28;20701;-47
2023/06/06 03:47:56;;;;;;;6.32;4.95;;;;;;;9.49;100.00;102036.81;5052530;28;20294;-46
2023/06/06 03:50:22;;;;;;;8.23;6.60;;;;;;;9.71;100.00;102031.16;5050800;28;20243;-47
2023/06/06 03:52:48;;;;;;;11.95;5.85;;;;;;;9.61;100.00;102034.88;5052947;28;20195;-48
2023/06/06 03:55:13;;;;;;;8.27;6.03;;;;;;;9.84;100.00;102038.09;5052786;28;20638;-48
2023/06/06 03:57:40;;;;;;;7.97;6.15;;;;;;;9.97;100.00;102032.50;5054823;28;20274;-48
2023/06/06 04:00:13;;;;;;;7.43;6.07;;;;;;;10.00;100.00;102032.47;5051404;28;20204;-47
2023/06/06 04:02:41;;;;;;;8.88;6.13;;;;;;;9.96;100.00;102042.34;5048466;28;20213;-46
2023/06/06 04:05:07;;;;;;;10.85;7.72;;;;;;;10.20;100.00;102040.19;5055839;28;20187;-47
2023/06/06 04:07:33;;;;;;;15.48;9.27;;;;;;;10.40;100.00;102038.06;5039600;28;20225;-48
2023/06/06 04:09:59;;;;;;;16.58;9.02;;;;;;;10.51;100.00;102044.09;5053909;28;20171;-48
2023/06/06 04:12:24;;;;;;;15.82;10.32;;;;;;;10.72;100.00;102045.50;5053671;28;20828;-47
2023/06/06 04:14:50;;;;;;;16.60;11.25;;;;;;;10.83;100.00;102042.59;5051301;28;20184;-47
2023/06/06 04:17:17;;;;;;;12.98;10.13;;;;;;;10.87;100.00;102043.44;5048742;28;20670;-47
2023/06/06 04:19:43;;;;;;;21.63;12.50;;;;;;;10.87;100.00;102044.31;5050285;28;20211;-48
2023/06/06 04:22:09;;;;;;;16.00;11.25;;;;;;;10.96;100.00;102047.75;5048936;28;20203;-47
2023/06/06 04:24:35;;;;;;;19.60;12.50;;;;;;;10.96;100.00;102055.78;5054277;28;20544;-47
2023/06/06 04:27:03;;;;;;;19.10;11.90;;;;;;;11.01;100.00;102035.09;5049890;28;20203;-46
2023/06/06 04:29:33;;;;;;;17.75;11.15;;;;;;;11.06;100.00;102039.47;5052540;28;20175;-46
2023/06/06 04:32:01;;;;;;;16.25;11.45;;;;;;;11.13;100.00;102042.91;5051354;28;20224;-47
2023/06/06 04:34:31;;;;;;;20.40;12.40;;;;;;;11.15;100.00;102043.75;5049820;28;20579;-46
2023/06/06 04:37:04;;;;;;;14.38;11.35;;;;;;;11.21;100.00;102045.41;5046447;28;20246;-46
2023/06/06 04:39:32;;;;;;;14.52;10.68;;;;;;;11.23;100.00;102046.25;5049466;28;20203;-46
2023/06/06 04:41:58;;;;;;;16.55;11.43;;;;;;;11.32;100.00;102049.63;5051534;28;20270;-47
2023/06/06 04:44:25;;;;;;;14.40;10.63;;;;;;;11.35;100.00;102051.38;5058427;28;20195;-48
2023/06/06 04:46:52;;;;;;;16.17;11.07;;;;;;;11.38;100.00;102042.38;5057219;28;20719;-46
2023/06/06 04:49:21;;;;;;;13.85;11.38;;;;;;;11.43;100.00;102041.34;5060320;28;20181;-47
2023/06/06 04:51:46;;;;;;;18.15;11.52;;;;;;;11.51;100.00;102039.38;5057590;28;20200;-48
2023/06/06 04:54:12;;;;;;;14.27;11.27;;;;;;;11.44;100.00;102053.84;5055703;28;20188;-46
2023/06/06 04:56:40;;;;;;;18.88;12.02;;;;;;;11.40;100.00;102041.41;5054861;28;20256;-46
2023/06/06 04:59:06;;;;;;;17.15;12.02;;;;;;;11.54;100.00;102042.00;5056867;28;20199;-48
2023/06/06 05:01:37;;;;;;;19.08;12.60;;;;;;;11.51;100.00;102042.06;5058612;28;20175;-49
2023/06/06 05:04:03;;;;;;;18.67;12.18;;;;;;;11.62;100.00;102046.31;5052166;28;20194;-45
2023/06/06 05:06:31;;;;;;;18.17;12.48;;;;;;;11.68;100.00;102041.69;5054876;28;20661;-46
2023/06/06 05:08:59;;;;;;;19.83;12.25;;;;;;;11.63;100.00;102029.25;5056393;28;20186;-44
2023/06/06 05:11:25;;;;;;;20.63;11.57;;;;;;;11.76;100.00;102036.09;5058177;28;20175;-45
2023/06/06 05:13:52;;;;;;;19.23;12.02;;;;;;;11.73;100.00;102041.56;5058078;28;20183;-44
2023/06/06 05:16:17;;;;;;;18.63;13.00;;;;;;;11.78;100.00;102044.13;5053044;28;20268;-45
2023/06/06 05:18:43;;;;;;;21.42;12.35;;;;;;;11.84;100.00;102047.56;5057814;28;20395;-44
2023/06/06 05:21:08;;;;;;;19.80;11.77;;;;;;;11.92;100.00;102050.97;5058848;28;20179;-42
2023/06/06 05:23:34;;;;;;;16.65;11.60;;;;;;;11.89;100.00;102053.72;5055996;28;20182;-41
2023/06/06 05:26:00;;;;;;;17.27;12.07;;;;;;;11.93;100.00;102046.47;5058174;28;20206;-41
2023/06/06 05:28:28;;;;;;;18.73;11.90;;;;;;;11.97;100.00;102052.69;5054504;28;20550;-42
2023/06/06 05:30:56;;;;;;;16.90;11.23;;;;;;;11.98;100.00;102044.56;5057072;28;20178;-42
2023/06/06 05:33:22;;;;;;;21.95;13.30;;;;;;;12.02;100.00;102050.75;5056709;28;20668;-41
2023/06/06 05:35:47;;;;;;;19.73;11.77;;;;;;;12.08;100.00;102046.09;5052649;28;20199;-42
2023/06/06 05:38:15;;;;;;;13.38;11.93;;;;;;;12.19;100.00;102044.97;5057920;28;20213;-42
2023/06/06 05:40:41;;;;;;;15.52;11.43;;;;;;;12.22;100.00;102043.06;5057086;28;20186;-42
2023/06/06 05:43:06;;;;;;;16.13;11.32;;;;;;;12.25;100.00;102047.50;5053882;28;20186;-41
2023/06/06 05:45:32;;;;;;;18.50;11.82;;;;;;;12.18;100.00;102048.56;5058275;28;20191;-43
2023/06/06 05:47:57;;;;;;;17.25;11.18;;;;;;;12.25;100.00;102044.81;5054959;28;20183;-41
2023/06/06 05:50:23;;;;;;;17.88;11.98;;;;;;;12.32;100.00;102049.09;5053110;28;20176;-41
2023/06/06 05:52:48;;;;;;;15.02;11.55;;;;;;;12.41;100.00;102050.66;5051241;28;20266;-43
2023/06/06 05:55:31;;;;;;;18.17;12.15;;;;;;;12.46;100.00;102040.66;5051441;28;20646;-42
2023/06/06 05:57:57;;;;;;;17.27;11.07;;;;;;;12.46;100.00;102046.94;5068539;28;20191;-40
2023/06/06 06:00:24;;;;;;;20.48;12.05;;;;;;;12.44;100.00;102047.88;5050370;28;20214;-42
2023/06/06 06:02:52;;;;;;;20.85;12.38;;;;;;;12.43;100.00;102056.88;5053464;28;20198;-42
2023/06/06 06:05:18;;;;;;;16.52;11.32;;;;;;;12.46;100.00;102049.63;5051758;28;20188;-40
2023/06/06 06:07:44;;;;;;;14.52;11.48;;;;;;;12.48;100.00;102058.50;5049692;28;20665;-42
2023/06/06 06:10:10;;;;;;;17.67;11.27;;;;;;;12.54;100.00;102047.59;5052633;28;20191;-42
2023/06/06 06:12:36;;;;;;;17.40;11.88;;;;;;;12.53;100.00;102053.91;5061930;28;20178;-41
2023/06/06 06:15:02;;;;;;;18.10;10.82;;;;;;;12.63;100.00;102048.28;5054533;28;20190;-41
2023/06/06 06:17:27;;;;;;;21.75;11.23;;;;;;;12.56;100.00;102044.88;5059372;28;20267;-40
2023/06/06 06:19:53;;;;;;;13.48;10.30;;;;;;;12.85;100.00;102056.63;5053171;28;20619;-42
2023/06/06 06:22:18;;;;;;;19.88;10.73;;;;;;;13.01;100.00;102047.22;5052640;28;20198;-42
2023/06/06 06:24:44;;;;;;;15.55;10.15;;;;;;;13.14;100.00;102051.31;5056374;28;20188;-42
2023/06/06 06:27:10;;;;;;;26.30;10.55;;;;;;;13.17;100.00;102047.63;5054793;28;20579;-42
2023/06/06 06:29:35;;;;;;;16.48;9.55;;;;;;;13.36;100.00;102043.50;5051583;28;20213;-41
2023/06/06 06:32:01;;;;;;;20.63;11.10;;;;;;;13.50;100.00;102043.06;5051886;28;20198;-42
2023/06/06 06:34:26;;;;;;;16.67;8.73;;;;;;;13.56;100.00;102047.41;5051978;28;20192;-45
2023/06/06 06:36:52;;;;;;;17.02;10.20;;;;;;;13.47;100.00;102051.25;5050172;28;20233;-42
2023/06/06 06:39:18;;;;;;;17.35;9.40;;;;;;;13.51;100.00;102047.53;5051514;28;20360;-43
2023/06/06 06:41:45;;;;;;;18.17;9.52;;;;;;;13.62;100.00;102046.31;5051373;28;20195;-49
2023/06/06 06:44:11;;;;;;;16.55;8.65;;;;;;;13.74;100.00;102045.94;5051586;28;20625;-43
2023/06/06 06:46:37;;;;;;;14.85;8.52;;;;;;;13.84;100.00;102044.72;5051036;28;20210;-45
2023/06/06 06:49:02;;;;;;;15.43;8.38;;;;;;;13.72;100.00;102045.09;5051296;28;20167;-47
2023/06/06 06:51:29;;;;;;;18.08;9.57;;;;;;;14.14;100.00;102036.53;5050919;28;20195;-44
2023/06/06 06:53:57;;;;;;;16.35;9.55;;;;;;;13.97;100.00;102035.28;5050832;28;20217;-45
2023/06/06 06:56:24;;;;;;;16.73;8.80;;;;;;;14.14;100.00;102045.47;5049581;28;20606;-45
2023/06/06 06:58:50;;;;;;;12.90;8.68;;;;;;;14.51;100.00;102046.03;5051364;28;20183;-47
2023/06/06 07:01:18;;;;;;;11.65;8.35;;;;;;;14.93;100.00;102042.75;5053502;28;20255;-47
2023/06/06 07:03:46;;;;;;;13.07;7.90;;;;;;;14.55;100.00;102047.75;5052658;28;20566;-49
2023/06/06 07:06:13;;;;;;;15.98;8.55;;;;;;;15.18;100.00;102042.72;5050410;28;20210;-48
2023/06/06 07:08:41;;;;;;;11.90;7.60;;;;;;;15.87;100.00;102048.13;5051778;28;20673;-49
2023/06/06 07:11:07;;;;;;;12.82;8.10;;;;;;;16.26;100.00;102039.28;5053689;28;20720;-48
2023/06/06 07:13:32;;;;;;;14.30;7.57;;;;;;;16.34;98.03;102031.75;5054273;28;20221;-47
2023/06/06 07:15:58;;;;;;;12.45;7.50;;;;;;;16.17;96.08;102035.16;5051013;28;20237;-48
2023/06/06 07:18:24;;;;;;;12.75;8.50;;;;;;;15.82;95.05;102029.41;5055533;28;20183;-48
2023/06/06 07:20:49;;;;;;;11.35;7.38;;;;;;;16.30;94.89;102035.53;5050847;28;20241;-49
2023/06/06 07:23:15;;;;;;;11.85;7.43;;;;;;;16.48;93.43;102033.84;5052182;28;20446;-48
2023/06/06 07:25:42;;;;;;;12.02;7.10;;;;;;;16.61;91.98;102032.34;5052685;28;20591;-48
2023/06/06 07:28:10;;;;;;;13.00;6.75;;;;;;;16.64;90.06;102031.34;5050627;28;20199;-48
2023/06/06 07:30:35;;;;;;;12.02;6.88;;;;;;;16.54;89.80;102027.28;5055233;28;20274;-47
2023/06/06 07:33:01;;;;;;;13.35;6.90;;;;;;;16.36;89.01;102023.56;5052877;28;20262;-47
2023/06/06 07:35:32;;;;;;;11.98;6.85;;;;;;;16.33;89.78;102024.56;5049604;28;20675;-48
2023/06/06 07:37:59;;;;;;;12.48;6.60;;;;;;;16.53;89.75;102022.81;5053047;28;20282;-47
2023/06/06 07:40:24;;;;;;;11.65;6.88;;;;;;;16.04;89.27;102028.50;5050082;28;20250;-47
2023/06/06 07:42:50;;;;;;;11.27;7.15;;;;;;;16.22;89.96;102030.47;5051021;28;20590;-48
2023/06/06 07:45:16;;;;;;;12.65;6.82;;;;;;;16.61;89.18;102031.47;5057728;28;20270;-46
2023/06/06 07:47:42;;;;;;;14.00;6.82;;;;;;;16.39;88.72;102026.13;5058280;28;20262;-49
2023/06/06 07:50:08;;;;;;;14.10;6.80;;;;;;;16.47;88.25;102030.25;5054190;28;20187;-49
2023/06/06 07:52:34;;;;;;;10.38;6.47;;;;;;;16.64;87.72;102028.66;5054556;28;20187;-48
2023/06/06 07:55:00;;;;;;;12.75;6.70;;;;;;;16.88;87.55;102030.28;5052636;28;20225;-48
2023/06/06 07:57:27;;;;;;;12.82;6.90;;;;;;;16.92;86.05;102027.41;5054698;28;20194;-49
2023/06/06 07:59:53;;;;;;;17.63;6.68;;;;;;;17.39;85.84;102027.91;5057943;28;20575;-47
2023/06/06 08:02:19;;;;;;;15.77;7.30;;;;;;;16.95;84.50;102017.34;5053748;28;20664;-47
2023/06/06 08:04:45;;;;;;;12.07;6.72;;;;;;;16.95;84.85;102020.03;5054257;28;20638;-48
2023/06/06 08:07:15;;;;;;;14.48;6.60;;;;;;;16.65;85.04;102011.44;5056020;28;20571;-47
2023/06/06 08:09:41;;;;;;;11.25;6.72;;;;;;;17.16;85.56;102012.72;5053182;28;20671;-48
2023/06/06 08:12:07;;;;;;;14.55;7.20;;;;;;;16.60;85.05;102017.06;5052546;28;20197;-47
2023/06/06 08:14:34;;;;;;;10.15;6.75;;;;;;;16.83;86.44;102016.06;5052105;28;20652;-48
2023/06/06 08:17:00;;;;;;;11.43;6.55;;;;;;;17.02;85.51;102017.94;5051526;28;20265;-47
2023/06/06 08:19:26;;;;;;;10.23;6.65;;;;;;;16.54;85.61;102011.06;5055498;28;20195;-48
2023/06/06 08:21:52;;;;;;;15.18;7.25;;;;;;;17.12;85.65;102012.94;5057640;28;20214;-47
2023/06/06 08:24:17;;;;;;;13.55;7.45;;;;;;;17.28;84.88;102004.03;5056874;28;20653;-48
2023/06/06 08:26:42;;;;;;;10.20;7.00;;;;;;;16.71;84.52;102007.59;5056804;28;20542;-51
2023/06/06 08:29:08;;;;;;;10.68;6.40;;;;;;;16.99;85.17;102009.94;5056342;28;20317;-50
2023/06/06 08:31:34;;;;;;;11.27;6.45;;;;;;;17.35;84.38;102014.59;5056581;28;20206;-52
2023/06/06 08:33:59;;;;;;;13.68;7.07;;;;;;;17.03;84.08;102017.88;5055834;28;20213;-51
2023/06/06 08:36:25;;;;;;;12.82;7.07;;;;;;;17.13;84.34;102010.19;5055149;28;20552;-51
2023/06/06 08:38:52;;;;;;;15.95;7.38;;;;;;;17.17;84.75;102016.34;5062857;28;20198;-49
2023/06/06 08:41:18;;;;;;;12.30;7.45;;;;;;;17.03;84.70;102017.88;5068195;28;20197;-47
2023/06/06 08:43:46;;;;;;;11.88;8.10;;;;;;;17.14;85.46;102011.94;5058441;28;20229;-52
2023/06/06 08:46:13;;;;;;;10.98;7.97;;;;;;;17.13;85.81;102021.00;5065692;28;20634;-49
2023/06/06 08:48:40;;;;;;;16.15;8.40;;;;;;;16.81;86.30;102017.94;5059215;28;20190;-49
2023/06/06 08:51:08;;;;;;;15.20;8.75;;;;;;;16.90;87.29;102016.66;5066380;28;20183;-47
2023/06/06 08:53:35;;;;;;;14.27;8.65;;;;;;;16.85;87.21;102022.28;5053463;28;20184;-48
2023/06/06 08:56:01;;;;;;;13.85;8.77;;;;;;;16.87;87.92;102016.81;5056737;28;20211;-47
2023/06/06 08:58:29;;;;;;;15.38;9.23;;;;;;;17.02;88.49;102017.94;5065676;28;20750;-52
2023/06/06 09:00:59;;;;;;;13.70;9.43;;;;;;;16.90;88.81;102024.78;5059115;28;20658;-52
2023/06/06 09:03:31;;;;;;;15.23;9.30;;;;;;;16.61;88.58;102020.66;5072218;28;20558;-49
2023/06/06 09:05:59;;;;;;;17.05;8.93;;;;;;;16.91;89.03;102028.38;5070196;28;20207;-49
2023/06/06 09:08:25;;;;;;;16.60;8.95;;;;;;;17.01;88.45;102022.47;5064785;28;20183;-46
2023/06/06 09:10:50;;;;;;;13.13;9.38;;;;;;;17.06;88.17;102023.13;5055667;28;20594;-46
2023/06/06 09:13:16;;;;;;;12.95;9.45;;;;;;;16.99;87.81;102021.66;5060577;28;20236;-48
2023/06/06 09:15:41;;;;;;;11.85;9.07;;;;;;;17.12;88.09;102018.38;5061259;28;20226;-50
2023/06/06 09:18:07;;;;;;;13.82;9.15;;;;;;;17.28;87.88;102027.53;5071433;28;20182;-46
2023/06/06 09:20:33;;;;;;;15.07;9.52;;;;;;;17.15;87.77;102021.81;5062800;28;20275;-49
2023/06/06 09:23:00;;;;;;;13.43;9.25;;;;;;;17.34;87.66;102015.53;5054389;28;20176;-49
2023/06/06 09:25:27;;;;;;;11.48;9.23;;;;;;;17.20;87.67;102014.34;5057474;28;20191;-48
2023/06/06 09:28:00;;;;;;;10.80;9.27;;;;;;;17.41;87.66;102009.75;5050405;28;20183;-47
2023/06/06 09:30:28;;;;;;;11.15;8.65;;;;;;;17.69;87.35;102019.25;5054597;28;20228;-52
2023/06/06 09:33:01;;;;;;;14.65;9.70;;;;;;;17.68;87.33;102018.34;5066103;28;20183;-49
2023/06/06 09:35:37;;;;;;;13.95;8.43;;;;;;;18.01;86.46;102001.41;5064832;28;20236;-49
2023/06/06 09:38:15;;;;;;;9.85;8.07;;;;;;;18.09;85.17;101995.59;5035614;28;20179;-50
2023/06/06 09:40:44;;;;;;;16.67;8.20;;;;;;;18.08;85.10;101999.25;5060901;28;20598;-48
2023/06/06 09:43:10;;;;;;;15.50;8.75;;;;;;;17.84;84.09;101996.84;5062336;28;20418;-52
2023/06/06 09:45:48;;;;;;;11.80;9.05;;;;;;;17.57;84.53;101999.03;5055263;28;20635;-49
2023/06/06 09:48:19;;;;;;;15.85;10.27;;;;;;;17.55;85.57;102011.78;5063801;28;20186;-50
2023/06/06 09:50:45;;;;;;;15.10;10.07;;;;;;;17.25;85.73;102006.91;5057933;28;20211;-49
2023/06/06 09:53:12;;;;;;;10.63;9.48;;;;;;;17.40;86.23;102007.97;5061802;28;20206;-49
2023/06/06 09:55:39;;;;;;;10.52;9.27;;;;;;;17.32;86.46;102001.16;5063222;28;20201;-49
2023/06/06 09:58:07;;;;;;;13.93;9.68;;;;;;;17.54;86.82;102006.47;5059962;28;20653;-48
2023/06/06 10:00:37;;;;;;;13.70;9.63;;;;;;;17.35;87.03;102014.59;5058188;28;20206;-50
2023/06/06 10:03:04;;;;;;;13.75;10.23;;;;;;;17.22;87.16;102007.03;5057249;28;20270;-50
2023/06/06 10:05:31;;;;;;;11.23;9.68;;;;;;;17.41;87.42;102001.63;5058279;28;20308;-47
2023/06/06 10:07:57;;;;;;;10.48;9.40;;;;;;;17.67;87.18;101986.81;5058892;28;20277;-53
2023/06/06 10:10:24;;;;;;;19.23;9.80;;;;;;;17.60;86.34;101990.78;5052693;28;20771;-52
2023/06/06 10:12:50;;;;;;;13.13;9.25;;;;;;;17.68;86.98;101991.25;5060070;28;20193;-51
2023/06/06 10:15:17;;;;;;;12.73;8.82;;;;;;;17.75;86.36;101989.13;5057196;28;20286;-49
2023/06/06 10:17:44;;;;;;;13.88;9.10;;;;;;;17.68;86.22;101987.69;5055200;28;20217;-49
2023/06/06 10:20:11;;;;;;;9.65;8.35;;;;;;;17.90;85.82;101990.22;5053700;28;20619;-50
2023/06/06 10:22:39;;;;;;;8.57;7.60;;;;;;;18.06;84.85;101979.47;5057924;28;20183;-48
2023/06/06 10:25:13;;;;;;;13.95;9.25;;;;;;;17.70;85.18;101978.50;5060028;28;20194;-48
2023/06/06 10:27:51;;;;;;;13.52;8.32;;;;;;;17.82;85.09;101979.78;5051762;28;20207;-48
2023/06/06 10:30:29;;;;;;;16.20;8.30;;;;;;;18.15;84.23;101988.97;5056219;28;20190;-49
2023/06/06 10:33:08;;;;;;;10.00;7.93;;;;;;;18.25;82.65;101974.84;5056490;28;20194;-49
2023/06/06 10:35:34;;;;;;;9.73;7.32;;;;;;;18.63;81.78;101973.75;5058298;28;20179;-47
2023/06/06 10:38:08;;;;;;;8.93;7.63;;;;;;;18.64;80.91;101967.38;5058210;28;20191;-49
2023/06/06 10:40:48;;;;;;;12.15;7.68;;;;;;;18.57;80.55;101958.69;5050582;28;20218;-50
2023/06/06 10:43:15;;;;;;;13.43;7.25;;;;;;;18.78;79.77;101955.81;5056000;28;20211;-48
2023/06/06 10:45:45;;;;;;;10.38;7.47;;;;;;;18.83;80.26;101962.75;5057125;28;20210;-51
2023/06/06 10:48:13;;;;;;;11.35;7.03;;;;;;;18.87;79.60;101961.63;5057826;28;20282;-50
2023/06/06 10:50:52;;;;;;;12.57;7.65;;;;;;;18.83;79.84;101964.59;5057350;28;20179;-51
2023/06/06 10:53:17;;;;;;;13.43;8.05;;;;;;;18.83;79.73;101959.16;5050382;28;20197;-49
2023/06/06 10:55:44;;;;;;;10.30;7.28;;;;;;;18.81;80.74;101956.53;5057434;28;20288;-50
2023/06/06 10:58:16;;;;;;;9.35;7.72;;;;;;;18.84;80.65;101961.78;5060561;28;20236;-48
2023/06/06 11:00:43;;;;;;;10.00;7.60;;;;;;;18.92;80.05;101950.50;5056401;28;20207;-49
2023/06/06 11:03:13;;;;;;;11.85;7.78;;;;;;;18.92;80.46;101959.53;5058035;28;20680;-52
2023/06/06 11:06:00;;;;;;;8.27;7.47;;;;;;;19.06;79.95;101947.00;5054997;28;20538;-49
2023/06/06 11:08:37;;;;;;;14.57;6.90;;;;;;;19.26;79.38;101949.50;5058055;28;20224;-49
2023/06/06 11:11:19;;;;;;;11.52;7.80;;;;;;;18.93;80.51;101954.97;5058688;28;20641;-50
2023/06/06 11:13:51;;;;;;;12.63;7.80;;;;;;;19.01;82.22;101958.13;5049479;28;20183;-49
2023/06/06 11:16:27;;;;;;;9.02;7.40;;;;;;;19.42;81.59;101952.19;5056534;28;20578;-52